Time;durP1;ratioP1;P1;durP2;ratioP2;P2;SDS_P1;SDS_P2;PMS_P1;PMS_P2;Temp;Humidity;BMP_temperature;BMP_pressure;BME280_temperature;BME280_humidity;BME280_pressure;Samples;Min_cycle;Max_cycle;Signal;HPM_P1;HPM_P2
2023/02/27 00:00:59;;;;;;;4.63;3.15;;;;;;;4.19;100.00;96566.97;5104697;27;20081;-57
2023/02/27 00:03:28;;;;;;;5.88;3.50;;;;;;;4.34;100.00;96567.72;5093982;27;20078;-57
2023/02/27 00:05:56;;;;;;;4.93;3.58;;;;;;;4.69;100.00;96574.94;5106718;27;20523;-57
2023/02/27 00:08:26;;;;;;;4.57;3.63;;;;;;;4.60;100.00;96575.56;5100195;28;20572;-53
2023/02/27 00:10:54;;;;;;;4.72;2.45;;;;;;;4.62;100.00;96571.06;5102640;27;20102;-55
2023/02/27 00:13:22;;;;;;;5.63;3.65;;;;;;;4.51;100.00;96580.47;5099883;27;20075;-55
2023/02/27 00:15:50;;;;;;;7.63;3.80;;;;;;;4.46;99.45;96579.94;5099308;27;20095;-51
2023/02/27 00:18:19;;;;;;;4.13;3.20;;;;;;;4.39;100.00;96575.25;5103429;27;20082;-53
2023/02/27 00:20:47;;;;;;;4.07;3.05;;;;;;;4.33;100.00;96576.47;5103259;27;20086;-54
2023/02/27 00:23:16;;;;;;;5.05;3.53;;;;;;;4.33;100.00;96586.09;5103779;27;20074;-57
2023/02/27 00:25:45;;;;;;;6.03;2.45;;;;;;;4.14;100.00;96581.28;5099416;27;20080;-58
2023/02/27 00:28:13;;;;;;;6.13;3.50;;;;;;;4.09;100.00;96578.94;5100927;27;20094;-52
2023/02/27 00:30:42;;;;;;;5.18;3.13;;;;;;;4.11;100.00;96584.09;5106180;27;20075;-58
2023/02/27 00:33:10;;;;;;;4.30;2.80;;;;;;;4.23;100.00;96591.09;5094911;27;20085;-56
2023/02/27 00:35:38;;;;;;;3.30;2.60;;;;;;;4.25;100.00;96586.59;5097068;27;20079;-55
2023/02/27 00:38:07;;;;;;;6.78;3.58;;;;;;;4.42;100.00;96588.09;5102602;27;20075;-55
2023/02/27 00:40:35;;;;;;;4.88;3.72;;;;;;;4.10;100.00;96592.84;5096636;27;20083;-53
2023/02/27 00:43:05;;;;;;;5.53;3.10;;;;;;;3.68;100.00;96589.47;5099863;27;20071;-56
2023/02/27 00:45:33;;;;;;;5.05;2.33;;;;;;;4.17;100.00;96584.50;5097073;27;20083;-58
2023/02/27 00:48:01;;;;;;;7.38;3.35;;;;;;;3.71;100.00;96592.72;5090792;28;20092;-56
2023/02/27 00:50:29;;;;;;;3.55;2.58;;;;;;;3.99;100.00;96586.56;5104978;27;20086;-57
2023/02/27 00:52:58;;;;;;;7.45;3.50;;;;;;;4.06;100.00;96587.00;5098820;27;20074;-56
2023/02/27 00:55:26;;;;;;;5.13;2.97;;;;;;;4.20;100.00;96586.94;5099392;27;20093;-58
2023/02/27 00:57:54;;;;;;;5.10;3.63;;;;;;;4.15;100.00;96588.16;5103927;27;20074;-56
2023/02/27 01:00:24;;;;;;;5.50;3.55;;;;;;;4.24;100.00;96590.16;5096157;27;20086;-60
2023/02/27 01:02:52;;;;;;;5.97;3.67;;;;;;;3.63;100.00;96583.75;5101397;27;20062;-54
2023/02/27 01:05:21;;;;;;;4.00;3.13;;;;;;;4.27;100.00;96580.34;5093925;28;20087;-57
2023/02/27 01:07:49;;;;;;;5.00;2.63;;;;;;;4.18;100.00;96585.34;5097519;28;20146;-58
2023/02/27 01:10:18;;;;;;;4.05;2.47;;;;;;;4.53;100.00;96580.34;5096209;28;20083;-58
2023/02/27 01:12:46;;;;;;;3.15;2.47;;;;;;;3.97;100.00;96583.22;5101111;28;20473;-57
2023/02/27 01:15:14;;;;;;;5.43;3.17;;;;;;;4.17;100.00;96581.91;5100550;28;20091;-56
2023/02/27 01:17:46;;;;;;;4.28;2.63;;;;;;;4.76;98.51;96584.84;5095857;28;20084;-56
2023/02/27 01:20:15;;;;;;;6.13;4.15;;;;;;;4.58;98.17;96582.66;5101450;28;20120;-52
2023/02/27 01:22:43;;;;;;;4.03;2.63;;;;;;;4.48;100.00;96583.28;5105103;28;20091;-58
2023/02/27 01:25:11;;;;;;;3.85;2.38;;;;;;;4.54;100.00;96582.00;5102726;28;20082;-54
2023/02/27 01:27:39;;;;;;;4.50;3.40;;;;;;;4.41;97.86;96586.44;5093093;28;20083;-55
2023/02/27 01:30:10;;;;;;;3.95;2.78;;;;;;;4.37;100.00;96585.78;5100003;28;20082;-54
2023/02/27 01:32:38;;;;;;;;;;;;;;;4.35;100.00;96587.66;5099763;28;20102;-57
2023/02/27 01:35:08;;;;;;;5.00;3.08;;;;;;;4.66;99.39;96586.41;5103669;28;19955;-54
2023/02/27 01:37:36;;;;;;;5.07;3.38;;;;;;;4.39;100.00;96585.69;5099410;27;20086;-57
2023/02/27 01:40:07;;;;;;;6.20;2.78;;;;;;;4.69;99.57;96588.81;5096588;28;20083;-57
2023/02/27 01:42:35;;;;;;;5.18;2.65;;;;;;;4.75;100.00;96598.84;5106545;28;20086;-53
2023/02/27 01:45:24;;;;;;;5.93;3.35;;;;;;;4.71;97.47;96583.47;5094042;28;20099;-57
2023/02/27 01:47:55;;;;;;;6.07;3.60;;;;;;;3.99;100.00;96591.78;5097119;28;20079;-56
2023/02/27 01:50:25;;;;;;;6.40;3.20;;;;;;;4.63;100.00;96588.41;5096373;28;20475;-56
2023/02/27 01:52:57;;;;;;;5.13;3.00;;;;;;;4.60;100.00;96586.81;5104366;28;20084;-58
2023/02/27 01:55:28;;;;;;;4.93;3.20;;;;;;;4.14;100.00;96584.72;5100117;28;20067;-57
2023/02/27 01:57:56;;;;;;;;;;;;;;;4.41;100.00;96589.03;5102038;28;20451;-53
2023/02/27 02:00:25;;;;;;;5.93;3.55;;;;;;;4.33;100.00;96596.53;5103491;28;20378;-58
2023/02/27 02:02:58;;;;;;;6.18;3.45;;;;;;;4.45;100.00;96593.94;5096944;28;20086;-56
2023/02/27 02:05:30;;;;;;;6.30;2.97;;;;;;;4.67;100.00;96592.47;5098499;28;20539;-55
2023/02/27 02:07:58;;;;;;;5.60;3.08;;;;;;;4.99;99.68;96592.88;5099616;28;20087;-58
2023/02/27 02:10:27;;;;;;;4.88;3.03;;;;;;;4.92;98.42;96589.00;5105313;28;20083;-58
2023/02/27 02:12:56;;;;;;;5.72;3.83;;;;;;;4.23;100.00;96594.56;5096510;28;20464;-57
2023/02/27 02:15:30;;;;;;;6.57;3.55;;;;;;;4.55;100.00;96596.75;5099448;28;20075;-56
2023/02/27 02:18:09;;;;;;;5.95;3.20;;;;;;;4.71;100.00;96589.56;5095492;28;20080;-57
2023/02/27 02:21:06;;;;;;;5.68;3.08;;;;;;;4.42;100.00;96594.13;5098094;28;20523;-57
2023/02/27 02:24:19;;;;;;;5.45;4.07;;;;;;;4.74;100.00;96586.72;5098525;27;20080;-58
2023/02/27 02:27:08;;;;;;;7.03;4.53;;;;;;;3.89;100.00;96589.84;5079904;28;20269;-57
2023/02/27 02:30:07;;;;;;;3.83;3.35;;;;;;;4.80;100.00;96588.06;5102461;28;20091;-57
2023/02/27 02:33:12;;;;;;;4.65;3.03;;;;;;;4.03;100.00;96588.03;5097688;27;20083;-57
2023/02/27 02:36:28;;;;;;;6.45;3.70;;;;;;;4.49;100.00;96587.56;5103377;27;20111;-58
2023/02/27 02:39:18;;;;;;;6.78;3.60;;;;;;;4.81;97.13;96587.13;5100849;27;20074;-58
2023/02/27 02:41:58;;;;;;;4.72;3.38;;;;;;;4.53;100.00;96588.19;5097904;27;20471;-55
2023/02/27 02:44:34;;;;;;;5.50;2.92;;;;;;;5.00;96.05;96589.31;5096582;27;20077;-59
2023/02/27 02:47:05;;;;;;;5.55;3.55;;;;;;;4.58;100.00;96580.91;5106662;27;20067;-58
2023/02/27 02:49:41;;;;;;;7.03;3.47;;;;;;;5.00;96.96;96586.69;5106044;27;20562;-58
2023/02/27 02:52:14;;;;;;;4.25;3.40;;;;;;;4.70;98.63;96587.88;5101168;27;20090;-56
2023/02/27 02:54:48;;;;;;;4.72;3.33;;;;;;;4.64;99.10;96580.44;5103329;27;20075;-55
2023/02/27 02:57:19;;;;;;;4.25;2.75;;;;;;;4.63;96.24;96581.41;5101434;27;20181;-51
2023/02/27 02:59:52;;;;;;;3.50;2.72;;;;;;;4.66;98.19;96589.03;5100571;27;20523;-57
2023/02/27 03:02:24;;;;;;;5.05;3.78;;;;;;;4.54;98.84;96589.84;5092581;28;20071;-56
2023/02/27 03:04:56;;;;;;;7.38;4.43;;;;;;;4.49;98.70;96584.13;5097174;28;20181;-55
2023/02/27 03:07:28;;;;;;;3.47;2.75;;;;;;;4.39;97.40;96596.13;5095708;27;20086;-56
2023/02/27 03:10:02;;;;;;;4.47;3.53;;;;;;;4.20;99.46;96580.88;5105865;27;20820;-55
2023/02/27 03:12:31;;;;;;;3.60;2.58;;;;;;;4.57;96.82;96581.81;5105699;27;20084;-59
2023/02/27 03:15:03;;;;;;;4.35;3.00;;;;;;;4.64;96.88;96585.66;5101645;27;20048;-58
2023/02/27 03:17:38;;;;;;;3.15;2.20;;;;;;;4.79;93.03;96588.19;5098245;27;20556;-58
2023/02/27 03:20:09;;;;;;;5.80;3.10;;;;;;;4.39;99.07;96583.06;5099455;27;20083;-58
2023/02/27 03:22:40;;;;;;;4.65;2.45;;;;;;;4.82;93.87;96588.81;5103771;27;20090;-57
2023/02/27 03:25:10;;;;;;;7.15;3.38;;;;;;;4.33;92.87;96593.91;5101503;27;20074;-58
2023/02/27 03:27:44;;;;;;;5.05;3.58;;;;;;;4.73;92.08;96592.06;5098948;27;20040;-52
2023/02/27 03:30:17;;;;;;;4.13;2.85;;;;;;;4.48;95.80;96587.69;5101300;27;20080;-57
2023/02/27 03:32:48;;;;;;;4.35;3.45;;;;;;;4.37;93.64;96596.25;5098634;27;20090;-57
2023/02/27 03:35:16;;;;;;;4.47;3.20;;;;;;;4.39;93.77;96598.72;5105129;27;20083;-47
2023/02/27 03:37:51;;;;;;;2.75;2.15;;;;;;;4.40;92.76;96595.16;5097328;28;20075;-58
2023/02/27 03:40:29;;;;;;;4.22;2.72;;;;;;;4.27;98.36;96589.97;5101197;27;20086;-58
2023/02/27 03:43:01;;;;;;;3.83;2.47;;;;;;;4.85;92.87;96593.84;5105994;27;20072;-56
2023/02/27 03:45:35;;;;;;;3.92;2.65;;;;;;;4.49;91.44;96594.56;5099281;27;20490;-55
2023/02/27 03:48:05;;;;;;;3.13;2.03;;;;;;;4.94;94.85;96600.19;5100455;27;20087;-57
2023/02/27 03:50:33;;;;;;;4.32;2.85;;;;;;;4.52;96.02;96595.19;5097785;27;20727;-55
2023/02/27 03:53:03;;;;;;;6.07;3.10;;;;;;;4.62;93.81;96605.84;5101003;27;20086;-58
2023/02/27 03:55:36;;;;;;;4.00;2.40;;;;;;;4.78;91.29;96600.41;5103240;27;20086;-56
2023/02/27 03:58:05;;;;;;;5.53;3.97;;;;;;;4.32;92.75;96605.31;5098424;28;20082;-55
2023/02/27 04:00:34;;;;;;;4.60;2.72;;;;;;;5.18;90.40;96603.69;5098444;27;20094;-58
2023/02/27 04:03:02;;;;;;;5.10;3.50;;;;;;;5.31;84.59;96601.06;5100781;27;21652;-58
2023/02/27 04:05:30;;;;;;;4.85;4.00;;;;;;;4.91;89.27;96611.69;5106004;27;20098;-57
2023/02/27 04:08:25;;;;;;;5.00;3.38;;;;;;;4.80;94.89;96616.81;5098034;27;20063;-57
2023/02/27 04:11:06;;;;;;;4.88;3.00;;;;;;;4.41;97.24;96610.75;5094592;27;20091;-57
2023/02/27 04:13:47;;;;;;;3.53;2.55;;;;;;;4.29;97.45;96609.78;5095481;27;20083;-57
2023/02/27 04:16:40;;;;;;;2.58;2.05;;;;;;;4.37;98.19;96619.75;5097622;28;20480;-58
2023/02/27 04:19:16;;;;;;;4.18;3.20;;;;;;;4.68;96.94;96615.03;5100215;27;20079;-57
2023/02/27 04:21:50;;;;;;;4.97;3.67;;;;;;;4.33;97.26;96613.03;5097480;27;20078;-53
2023/02/27 04:24:25;;;;;;;4.65;4.18;;;;;;;4.59;94.67;96621.72;5099180;27;20067;-54
2023/02/27 04:26:58;;;;;;;5.45;2.90;;;;;;;4.51;97.14;96614.41;5100167;27;20176;-57
2023/02/27 04:29:33;;;;;;;4.45;2.60;;;;;;;4.23;100.00;96609.34;5105062;27;20063;-58
2023/02/27 04:32:05;;;;;;;4.93;2.72;;;;;;;4.31;95.59;96614.91;5102295;27;20082;-55
2023/02/27 04:34:38;;;;;;;4.32;3.30;;;;;;;4.49;95.73;96611.06;5102955;27;20547;-53
2023/02/27 04:37:08;;;;;;;4.72;3.10;;;;;;;4.16;96.86;96601.09;5095626;28;20059;-55
2023/02/27 04:39:41;;;;;;;4.35;2.95;;;;;;;4.24;99.09;96611.88;5095940;27;20094;-57
2023/02/27 04:42:13;;;;;;;4.28;3.25;;;;;;;4.23;99.51;96612.81;5099976;27;20484;-56
2023/02/27 04:44:42;;;;;;;3.92;3.15;;;;;;;4.53;96.24;96616.91;5100296;27;20075;-57
2023/02/27 04:47:12;;;;;;;5.35;3.40;;;;;;;4.26;93.96;96604.75;5095106;27;20076;-58
2023/02/27 04:49:44;;;;;;;3.25;2.58;;;;;;;4.55;93.29;96603.78;5099898;27;20546;-57
2023/02/27 04:52:14;;;;;;;6.30;3.15;;;;;;;4.56;95.54;96611.47;5101464;27;20078;-58
2023/02/27 04:54:46;;;;;;;4.32;2.95;;;;;;;4.40;96.16;96613.44;5099681;28;20181;-58
2023/02/27 04:57:19;;;;;;;5.93;3.67;;;;;;;4.56;95.82;96621.09;5104741;27;20083;-57
2023/02/27 04:59:51;;;;;;;4.90;3.72;;;;;;;4.54;94.96;96615.97;5100258;28;20783;-58
2023/02/27 05:02:23;;;;;;;5.20;3.20;;;;;;;4.32;98.51;96629.63;5100164;27;20536;-58
2023/02/27 05:04:55;;;;;;;3.70;2.45;;;;;;;4.55;95.43;96616.81;5110989;27;20043;-55
2023/02/27 05:07:27;;;;;;;6.93;3.80;;;;;;;4.01;98.27;96610.78;5116287;27;20526;-55
2023/02/27 05:09:59;;;;;;;7.13;3.97;;;;;;;4.29;96.67;96612.38;5101580;28;20078;-58
2023/02/27 05:12:32;;;;;;;4.75;3.50;;;;;;;4.17;98.25;96622.81;5091867;28;20080;-56
2023/02/27 05:15:04;;;;;;;5.00;3.38;;;;;;;4.25;97.95;96618.75;5096845;28;20075;-57
2023/02/27 05:17:36;;;;;;;5.38;3.50;;;;;;;3.97;100.00;96617.13;5095195;28;20071;-56
2023/02/27 05:20:05;;;;;;;4.45;3.50;;;;;;;4.16;100.00;96616.75;5088247;28;20723;-53
2023/02/27 05:22:37;;;;;;;5.00;3.92;;;;;;;4.32;98.26;96618.34;5097752;28;20064;-57
2023/02/27 05:25:11;;;;;;;5.63;3.25;;;;;;;4.05;100.00;96614.84;5093256;28;20079;-58
2023/02/27 05:27:46;;;;;;;5.40;3.85;;;;;;;4.25;100.00;96608.31;5092931;28;20503;-56
2023/02/27 05:30:18;;;;;;;5.28;3.85;;;;;;;4.40;97.42;96616.06;5092001;28;20068;-57
2023/02/27 05:32:52;;;;;;;5.65;3.88;;;;;;;4.21;100.00;96616.47;5105033;28;20660;-54
2023/02/27 05:35:24;;;;;;;6.10;3.35;;;;;;;3.81;100.00;96612.06;5097806;28;20075;-55
2023/02/27 05:38:02;;;;;;;5.20;3.33;;;;;;;4.34;100.00;96614.72;5100321;28;20091;-53
2023/02/27 05:40:33;;;;;;;3.40;2.92;;;;;;;4.75;93.08;96616.31;5096954;28;20087;-56
2023/02/27 05:43:06;;;;;;;4.47;3.28;;;;;;;4.19;100.00;96610.50;5097452;28;20091;-58
2023/02/27 05:45:37;;;;;;;5.45;2.95;;;;;;;4.35;98.98;96608.53;5100373;28;20083;-56
2023/02/27 05:48:08;;;;;;;6.07;3.90;;;;;;;4.26;99.84;96615.19;5106077;28;20075;-58
2023/02/27 05:50:38;;;;;;;4.65;3.00;;;;;;;4.36;100.00;96620.66;5100402;28;20074;-58
2023/02/27 05:53:09;;;;;;;6.30;3.67;;;;;;;4.07;100.00;96624.38;5100167;28;20071;-54
2023/02/27 05:55:39;;;;;;;5.75;3.92;;;;;;;3.95;100.00;96631.22;5100388;28;20075;-58
2023/02/27 05:58:13;;;;;;;5.85;3.83;;;;;;;3.56;100.00;96622.41;5102059;28;20070;-54
2023/02/27 06:00:44;;;;;;;4.22;2.92;;;;;;;4.27;100.00;96627.34;5101934;28;20071;-57
2023/02/27 06:03:13;;;;;;;5.28;3.92;;;;;;;4.29;95.69;96628.06;5100044;28;20071;-57
2023/02/27 06:05:42;;;;;;;6.22;3.65;;;;;;;4.07;100.00;96621.75;5099072;28;20076;-54
2023/02/27 06:08:11;;;;;;;6.25;4.15;;;;;;;4.19;100.00;96626.16;5105563;27;21431;-58
2023/02/27 06:10:39;;;;;;;4.93;3.72;;;;;;;4.00;100.00;96627.38;5104031;27;20067;-57
2023/02/27 06:13:07;;;;;;;8.98;4.25;;;;;;;4.10;100.00;96622.41;5099707;27;20181;-57
2023/02/27 06:15:37;;;;;;;6.93;4.03;;;;;;;4.19;100.00;96631.38;5100916;27;20094;-54
2023/02/27 06:18:06;;;;;;;7.05;4.35;;;;;;;3.85;100.00;96630.97;5109343;27;20173;-52
2023/02/27 06:20:34;;;;;;;4.15;3.10;;;;;;;4.22;100.00;96639.00;5103962;27;20082;-57
2023/02/27 06:23:02;;;;;;;4.75;3.20;;;;;;;4.08;100.00;96637.31;5105258;27;20084;-59
2023/02/27 06:25:31;;;;;;;6.65;4.22;;;;;;;3.95;100.00;96637.25;5106065;27;20071;-55
2023/02/27 06:27:59;;;;;;;6.22;3.67;;;;;;;4.10;100.00;96645.88;5099136;28;20060;-55
2023/02/27 06:30:28;;;;;;;6.00;3.78;;;;;;;4.62;94.84;96637.19;5100773;27;20071;-56
2023/02/27 06:32:58;;;;;;;7.18;4.20;;;;;;;4.46;92.49;96647.00;5098496;27;20075;-52
2023/02/27 06:35:28;;;;;;;;;;;;;;;4.82;92.46;96642.81;5106313;27;20463;-56
2023/02/27 06:37:56;;;;;;;6.85;3.33;;;;;;;4.36;95.50;96648.53;5097163;27;20356;-57
2023/02/27 06:40:25;;;;;;;6.72;3.20;;;;;;;4.61;92.40;96650.34;5096206;28;20090;-58
2023/02/27 06:42:53;;;;;;;4.22;2.92;;;;;;;4.66;95.79;96643.88;5098124;27;20058;-54
2023/02/27 06:45:23;;;;;;;7.28;4.03;;;;;;;4.71;94.06;96652.25;5094829;27;20063;-59
2023/02/27 06:47:51;;;;;;;6.93;4.20;;;;;;;4.55;93.55;96648.16;5094391;27;20455;-57
2023/02/27 06:50:21;;;;;;;6.88;4.40;;;;;;;4.63;93.95;96651.09;5095451;27;20082;-52
2023/02/27 06:52:49;;;;;;;5.67;4.23;;;;;;;4.37;94.06;96651.06;5096864;27;20091;-59
2023/02/27 06:55:21;;;;;;;3.38;2.85;;;;;;;4.51;93.24;96655.38;5098300;27;20509;-58
2023/02/27 06:57:49;;;;;;;5.35;3.72;;;;;;;4.64;92.46;96656.19;5100226;27;20071;-57
2023/02/27 07:00:18;;;;;;;5.22;3.50;;;;;;;4.85;91.66;96653.06;5095911;27;20087;-54
2023/02/27 07:02:47;;;;;;;6.57;3.90;;;;;;;4.45;91.86;96658.38;5102763;27;20474;-57
2023/02/27 07:05:15;;;;;;;7.07;3.58;;;;;;;5.15;86.35;96652.75;5116960;27;20086;-59
2023/02/27 07:07:44;;;;;;;6.55;3.95;;;;;;;4.47;92.62;96659.97;5102223;27;20075;-56
2023/02/27 07:10:13;;;;;;;7.47;4.13;;;;;;;4.75;92.99;96663.34;5103618;28;20071;-58
2023/02/27 07:12:42;;;;;;;5.40;3.92;;;;;;;4.88;88.92;96656.31;5111718;27;20076;-55
2023/02/27 07:15:11;;;;;;;7.50;4.18;;;;;;;4.57;92.17;96659.31;5110140;27;20094;-58
2023/02/27 07:17:39;;;;;;;6.82;4.40;;;;;;;4.51;94.10;96656.19;5108260;27;20079;-58
2023/02/27 07:20:10;;;;;;;5.22;3.15;;;;;;;4.86;90.98;96667.81;5104006;27;20083;-57
2023/02/27 07:22:39;;;;;;;5.88;3.20;;;;;;;4.33;96.03;96651.34;5116608;27;20090;-59
2023/02/27 07:25:09;;;;;;;5.30;3.75;;;;;;;4.51;89.70;96658.81;5104312;27;20079;-57
2023/02/27 07:27:37;;;;;;;4.22;3.25;;;;;;;4.51;92.84;96650.97;5116492;27;20075;-58
2023/02/27 07:30:07;;;;;;;5.13;3.70;;;;;;;5.09;85.46;96656.59;5101839;27;20530;-57
2023/02/27 07:32:35;;;;;;;6.05;3.67;;;;;;;4.90;83.97;96664.06;5100888;27;20075;-59
2023/02/27 07:35:04;;;;;;;4.03;2.45;;;;;;;5.04;87.55;96656.09;5099893;27;20075;-56
2023/02/27 07:37:33;;;;;;;4.53;3.63;;;;;;;5.35;81.30;96657.41;5106242;27;20083;-59
2023/02/27 07:40:01;;;;;;;8.95;2.38;;;;;;;5.15;83.18;96660.59;5102206;27;20094;-54
2023/02/27 07:42:31;;;;;;;4.40;3.03;;;;;;;4.46;85.41;96663.50;5110685;27;20093;-57
2023/02/27 07:45:00;;;;;;;9.65;3.65;;;;;;;5.06;87.08;96663.81;5107568;27;20097;-57
2023/02/27 07:47:29;;;;;;;5.60;3.33;;;;;;;5.27;81.70;96667.59;5106932;27;20086;-54
2023/02/27 07:49:57;;;;;;;6.13;4.30;;;;;;;4.35;86.46;96660.75;5117368;27;20608;-56
2023/02/27 07:52:26;;;;;;;5.78;3.22;;;;;;;4.64;88.53;96673.66;5107785;27;20090;-53
2023/02/27 07:54:54;;;;;;;4.75;3.28;;;;;;;4.74;85.27;96672.09;5113876;27;20431;-55
2023/02/27 07:57:22;;;;;;;3.55;2.97;;;;;;;4.75;85.61;96676.41;5105748;27;20079;-54
2023/02/27 07:59:52;;;;;;;5.32;3.63;;;;;;;4.87;81.91;96672.09;5116948;27;20070;-58
2023/02/27 08:02:20;;;;;;;5.00;3.83;;;;;;;4.41;86.13;96676.03;5103475;27;20094;-56
2023/02/27 08:04:48;;;;;;;4.55;3.20;;;;;;;4.85;80.86;96673.97;5109230;27;20083;-56
2023/02/27 08:07:17;;;;;;;7.47;3.60;;;;;;;5.66;76.69;96665.72;5104896;27;20498;-55
2023/02/27 08:09:45;;;;;;;4.78;3.25;;;;;;;5.21;79.69;96678.47;5106498;27;20079;-55
2023/02/27 08:12:13;;;;;;;6.38;2.92;;;;;;;5.30;75.86;96684.81;5109223;27;20082;-55
2023/02/27 08:14:41;;;;;;;7.82;3.88;;;;;;;5.00;79.16;96683.41;5110032;27;20114;-54
2023/02/27 08:17:11;;;;;;;5.22;3.20;;;;;;;5.22;75.20;96687.97;5111029;27;20664;-58
2023/02/27 08:19:40;;;;;;;7.50;3.90;;;;;;;5.29;79.36;96686.59;5114677;27;20070;-58
2023/02/27 08:22:08;;;;;;;5.80;3.40;;;;;;;5.38;77.18;96688.59;5105810;27;20117;-53
2023/02/27 08:24:37;;;;;;;6.72;3.85;;;;;;;5.53;74.17;96681.44;5105001;27;20090;-55
2023/02/27 08:27:05;;;;;;;4.13;3.28;;;;;;;5.57;74.67;96682.88;5111080;27;20075;-55
2023/02/27 08:29:34;;;;;;;7.88;3.95;;;;;;;5.65;72.22;96685.00;5103688;27;20078;-53
2023/02/27 08:32:03;;;;;;;4.35;3.08;;;;;;;5.68;70.08;96693.44;5113753;27;20085;-54
2023/02/27 08:34:33;;;;;;;6.45;3.67;;;;;;;5.88;70.89;96681.56;5110308;27;20091;-56
2023/02/27 08:37:01;;;;;;;5.13;2.83;;;;;;;5.64;70.35;96688.53;5101192;27;20568;-56
2023/02/27 08:39:29;;;;;;;4.10;3.22;;;;;;;5.52;69.75;96686.78;5111915;27;20079;-53
2023/02/27 08:41:57;;;;;;;5.30;3.88;;;;;;;5.81;69.92;96688.16;5111353;27;20087;-53
2023/02/27 08:44:26;;;;;;;5.82;3.33;;;;;;;5.44;71.18;96700.41;5100112;27;20067;-54
2023/02/27 08:46:54;;;;;;;6.80;3.83;;;;;;;5.45;69.92;96700.28;5099219;28;20079;-56
2023/02/27 08:49:24;;;;;;;3.80;2.97;;;;;;;6.31;66.91;96696.81;5110633;27;20082;-55
2023/02/27 08:51:54;;;;;;;3.43;2.90;;;;;;;6.41;64.86;96676.84;5099263;28;20084;-52
2023/02/27 08:54:22;;;;;;;5.90;2.92;;;;;;;5.72;64.51;96699.31;5109224;27;21105;-57
2023/02/27 08:56:50;;;;;;;4.97;3.75;;;;;;;5.05;67.74;96706.59;5102439;27;20087;-56
2023/02/27 08:59:18;;;;;;;5.80;3.42;;;;;;;5.92;64.70;96698.75;5113108;27;20079;-57
2023/02/27 09:01:47;;;;;;;3.85;3.13;;;;;;;5.95;61.85;96708.16;5102723;27;20091;-57
2023/02/27 09:04:16;;;;;;;6.07;3.50;;;;;;;6.23;60.76;96714.00;5108320;27;20099;-58
2023/02/27 09:06:44;;;;;;;5.95;3.17;;;;;;;7.00;58.95;96709.16;5098026;28;20087;-57
2023/02/27 09:09:14;;;;;;;6.07;2.80;;;;;;;7.11;58.50;96703.94;5104400;27;20551;-58
2023/02/27 09:11:45;;;;;;;6.15;3.50;;;;;;;6.50;59.43;96716.41;5099881;27;20083;-58
2023/02/27 09:14:13;;;;;;;;;;;;;;;7.33;57.75;96703.16;5115386;27;20087;-55
2023/02/27 09:16:41;;;;;;;7.30;4.40;;;;;;;6.42;57.36;96714.34;5109126;27;19954;-58
2023/02/27 09:19:09;;;;;;;6.03;3.35;;;;;;;5.65;58.69;96734.69;5101177;27;20142;-57
2023/02/27 09:21:37;;;;;;;4.82;3.38;;;;;;;6.87;57.61;96717.13;5103705;28;20106;-54
2023/02/27 09:24:06;;;;;;;6.20;3.28;;;;;;;6.46;54.71;96717.56;5107484;28;20086;-52
2023/02/27 09:26:48;;;;;;;4.60;3.17;;;;;;;5.50;58.50;96735.75;5103939;27;20084;-57
2023/02/27 09:29:17;;;;;;;5.93;4.35;;;;;;;5.38;59.04;96748.75;5101268;28;20075;-56
2023/02/27 09:31:45;;;;;;;6.20;4.35;;;;;;;5.57;56.75;96726.53;5113008;28;20082;-57
2023/02/27 09:34:14;;;;;;;5.63;3.70;;;;;;;6.29;58.09;96734.53;5101730;28;20075;-53
2023/02/27 09:36:42;;;;;;;3.53;2.63;;;;;;;6.01;56.31;96735.66;5101402;28;20067;-58
2023/02/27 09:39:10;;;;;;;9.02;3.20;;;;;;;6.60;55.69;96733.09;5105155;28;20465;-56
2023/02/27 09:41:50;;;;;;;5.25;3.15;;;;;;;6.46;55.67;96722.81;5103459;27;20117;-59
2023/02/27 09:44:26;;;;;;;6.97;3.70;;;;;;;6.75;54.99;96733.78;5107779;27;20086;-58
2023/02/27 09:47:14;;;;;;;5.10;3.40;;;;;;;6.10;54.91;96748.13;5108924;27;20460;-58
2023/02/27 09:49:50;;;;;;;4.65;3.13;;;;;;;5.90;56.07;96729.38;5115154;27;20083;-57
2023/02/27 09:52:18;;;;;;;7.63;5.47;;;;;;;5.51;57.02;96755.75;5115732;27;20110;-58
2023/02/27 09:54:46;;;;;;;6.55;3.47;;;;;;;6.33;53.67;96746.44;5117022;27;20082;-57
2023/02/27 09:57:19;;;;;;;5.43;3.75;;;;;;;6.62;53.09;96734.66;5110619;27;20180;-55
2023/02/27 09:59:50;;;;;;;5.93;4.35;;;;;;;5.66;52.75;96754.69;5110667;27;20075;-57
2023/02/27 10:02:31;;;;;;;5.18;4.03;;;;;;;6.13;52.08;96753.13;5103838;28;20087;-59
2023/02/27 10:05:03;;;;;;;6.18;4.20;;;;;;;5.63;52.46;96755.72;5105738;27;20548;-57
2023/02/27 10:07:37;;;;;;;5.53;4.10;;;;;;;6.32;51.13;96766.56;5108376;27;20079;-55
2023/02/27 10:10:15;;;;;;;4.05;2.97;;;;;;;6.07;51.43;96754.41;5104990;27;20075;-59
2023/02/27 10:12:59;;;;;;;3.35;3.05;;;;;;;6.36;51.55;96773.25;5115087;27;20474;-59
2023/02/27 10:15:29;;;;;;;5.22;4.03;;;;;;;6.18;50.32;96778.03;5118474;27;20531;-56
2023/02/27 10:18:00;;;;;;;5.07;4.05;;;;;;;6.33;50.91;96775.25;5102975;28;20082;-59
2023/02/27 10:20:53;;;;;;;5.85;4.63;;;;;;;6.07;50.05;96767.50;5106099;27;20079;-60
2023/02/27 10:23:25;;;;;;;10.45;4.20;;;;;;;6.18;51.17;96779.81;5105577;27;20086;-59
2023/02/27 10:25:53;;;;;;;5.97;3.72;;;;;;;6.32;51.77;96787.50;5111033;27;20075;-58
2023/02/27 10:28:23;;;;;;;5.28;3.17;;;;;;;6.84;50.41;96770.59;5109285;27;20093;-58
2023/02/27 10:30:54;;;;;;;3.47;3.13;;;;;;;6.33;50.38;96785.72;5108216;27;20072;-60
2023/02/27 10:33:25;;;;;;;5.72;3.50;;;;;;;6.22;50.82;96785.66;5107821;27;20075;-60
2023/02/27 10:35:56;;;;;;;4.32;3.60;;;;;;;6.49;51.31;96778.44;5114177;27;20084;-56
2023/02/27 10:38:30;;;;;;;5.38;4.18;;;;;;;6.68;50.00;96775.31;5104491;28;20072;-60
2023/02/27 10:40:59;;;;;;;4.43;3.58;;;;;;;7.08;49.46;96773.19;5099063;27;20071;-57
2023/02/27 10:43:29;;;;;;;5.40;3.90;;;;;;;6.80;49.80;96784.06;5106875;27;20079;-59
2023/02/27 10:46:00;;;;;;;5.93;3.95;;;;;;;5.86;50.58;96782.91;5103217;27;20506;-59
2023/02/27 10:48:31;;;;;;;4.20;3.45;;;;;;;6.37;50.37;96793.28;5111019;27;20078;-60
2023/02/27 10:51:22;;;;;;;8.50;4.00;;;;;;;6.68;49.96;96788.44;5099445;27;20090;-60
2023/02/27 10:53:52;;;;;;;9.88;4.28;;;;;;;6.60;50.09;96767.16;5107220;27;20114;-60
2023/02/27 10:56:25;;;;;;;4.57;3.60;;;;;;;6.51;49.44;96776.56;5109558;27;20087;-60
2023/02/27 10:59:06;;;;;;;6.15;3.42;;;;;;;6.64;48.62;96776.47;5109342;27;20098;-57
2023/02/27 11:01:40;;;;;;;;;;;;;;;6.62;49.24;96789.69;5099669;27;20540;-58
2023/02/27 11:04:11;;;;;;;6.57;3.17;;;;;;;6.40;49.02;96800.91;5101182;27;19978;-59
2023/02/27 11:06:40;;;;;;;5.32;3.42;;;;;;;7.04;48.92;96786.66;5104228;27;20079;-57
2023/02/27 11:09:12;;;;;;;5.95;3.83;;;;;;;6.59;48.76;96784.69;5109882;27;20078;-58
2023/02/27 11:11:40;;;;;;;5.10;3.30;;;;;;;6.62;48.37;96775.78;5102251;27;20052;-59
2023/02/27 11:14:24;;;;;;;5.22;2.97;;;;;;;6.86;49.14;96786.22;5104462;27;20075;-59
2023/02/27 11:16:54;;;;;;;5.15;3.75;;;;;;;6.85;48.27;96784.56;5113324;27;20074;-56
2023/02/27 11:19:32;;;;;;;5.20;3.72;;;;;;;6.57;48.86;96786.59;5105504;27;20184;-57
2023/02/27 11:22:05;;;;;;;4.20;3.80;;;;;;;7.31;48.00;96779.31;5102043;27;20086;-58
2023/02/27 11:24:34;;;;;;;6.28;3.55;;;;;;;6.29;48.46;96797.38;5111761;27;20090;-56
2023/02/27 11:27:04;;;;;;;4.50;3.28;;;;;;;6.62;47.59;96773.16;5099945;27;20082;-60
2023/02/27 11:29:34;;;;;;;6.47;3.03;;;;;;;6.74;47.57;96790.56;5111129;27;20557;-60
2023/02/27 11:32:03;;;;;;;;;;;;;;;6.17;47.47;96784.22;5103888;27;20083;-60
2023/02/27 11:34:35;;;;;;;6.28;3.53;;;;;;;5.80;47.68;96783.31;5110576;27;20366;-59
2023/02/27 11:37:05;;;;;;;3.58;2.95;;;;;;;6.65;47.61;96773.75;5107467;27;20079;-60
2023/02/27 11:39:36;;;;;;;3.58;2.75;;;;;;;6.80;47.36;96777.03;5102996;27;20087;-59
2023/02/27 11:42:15;;;;;;;6.80;3.30;;;;;;;6.31;47.68;96775.38;5102544;27;20079;-60
2023/02/27 11:44:55;;;;;;;4.43;3.10;;;;;;;6.44;46.14;96783.19;5101804;27;20089;-59
2023/02/27 11:47:27;;;;;;;4.22;2.55;;;;;;;6.13;46.76;96790.63;5103803;27;20562;-60
2023/02/27 11:50:25;;;;;;;4.50;2.92;;;;;;;7.48;45.74;96775.41;5102883;27;20092;-60
2023/02/27 11:52:58;;;;;;;2.55;2.25;;;;;;;7.89;44.89;96770.53;5110166;27;20075;-56
2023/02/27 11:55:28;;;;;;;4.25;3.05;;;;;;;7.19;45.69;96769.78;5114832;27;20078;-60
2023/02/27 11:58:02;;;;;;;4.82;3.70;;;;;;;6.30;45.96;96773.72;5112095;27;20091;-60
2023/02/27 12:00:37;;;;;;;3.20;2.92;;;;;;;7.35;45.29;96775.50;5106270;27;20059;-60
2023/02/27 12:03:14;;;;;;;3.80;3.28;;;;;;;6.16;46.45;96779.94;5114758;27;20451;-57